Time;durP1;ratioP1;P1;durP2;ratioP2;P2;SDS_P1;SDS_P2;PMS_P1;PMS_P2;Temp;Humidity;BMP_temperature;BMP_pressure;BME280_temperature;BME280_humidity;BME280_pressure;Samples;Min_cycle;Max_cycle;Signal;HPM_P1;HPM_P2
2022/01/07 00:00:21;;;;;;;3.08;1.27;;;;;;;0.23;72.37;97535.28;5032818;28;20129;-62
2022/01/07 00:02:51;;;;;;;2.67;1.38;;;;;;;0.17;72.47;97536.53;5033387;28;20124;-62
2022/01/07 00:05:19;;;;;;;2.78;1.30;;;;;;;0.13;73.08;97543.75;5034272;28;20049;-62
2022/01/07 00:07:46;;;;;;;3.95;1.50;;;;;;;0.13;72.95;97546.50;5025493;28;20052;-62
2022/01/07 00:10:16;;;;;;;1.67;1.00;;;;;;;0.18;72.38;97548.28;5033998;28;20493;-61
2022/01/07 00:12:43;;;;;;;2.13;1.20;;;;;;;0.10;72.57;97547.13;5033865;28;20053;-61
2022/01/07 00:15:11;;;;;;;2.05;1.00;;;;;;;0.06;72.57;97540.69;5032460;28;20086;-61
2022/01/07 00:17:38;;;;;;;2.60;1.30;;;;;;;0.05;72.56;97538.25;5033310;28;20053;-61
2022/01/07 00:20:09;;;;;;;2.50;1.48;;;;;;;-0.02;72.73;97533.22;5034042;28;20049;-59
2022/01/07 00:22:40;;;;;;;2.75;1.30;;;;;;;-0.13;72.78;97551.81;5033066;28;20064;-60
2022/01/07 00:25:09;;;;;;;1.40;0.85;;;;;;;-0.14;72.55;97552.13;5029485;28;20049;-59
2022/01/07 00:27:37;;;;;;;2.58;1.48;;;;;;;-0.18;72.48;97559.31;5033039;28;20108;-58
2022/01/07 00:30:06;;;;;;;3.28;1.17;;;;;;;-0.23;72.65;97554.00;5034343;28;20077;-59
2022/01/07 00:32:34;;;;;;;1.50;0.90;;;;;;;-0.26;72.02;97554.63;5030744;28;20060;-60
2022/01/07 00:35:01;;;;;;;1.70;1.08;;;;;;;-0.29;71.83;97555.25;5033260;28;20053;-60
2022/01/07 00:37:29;;;;;;;1.15;0.77;;;;;;;-0.36;72.00;97560.31;5033550;28;20050;-62
2022/01/07 00:39:56;;;;;;;1.38;0.93;;;;;;;-0.42;71.61;97545.16;5033543;28;20386;-62
2022/01/07 00:42:23;;;;;;;1.17;0.85;;;;;;;-0.46;71.15;97549.66;5033512;28;20393;-61
2022/01/07 00:44:50;;;;;;;1.88;0.82;;;;;;;-0.52;70.91;97550.88;5033071;28;20057;-61
2022/01/07 00:47:17;;;;;;;1.75;0.93;;;;;;;-0.52;70.77;97553.63;5033277;28;20049;-61
2022/01/07 00:49:44;;;;;;;1.92;0.90;;;;;;;-0.56;71.07;97556.16;5032971;28;20053;-61
2022/01/07 00:52:11;;;;;;;1.48;0.70;;;;;;;-0.57;71.11;97559.19;5032931;28;20057;-61
2022/01/07 00:54:38;;;;;;;2.03;0.90;;;;;;;-0.57;70.83;97564.66;5032657;28;20067;-61
2022/01/07 00:57:05;;;;;;;0.85;0.60;;;;;;;-0.53;70.77;97558.25;5033342;28;20049;-62
2022/01/07 00:59:32;;;;;;;1.27;0.65;;;;;;;-0.48;70.54;97565.53;5033015;28;20132;-62
2022/01/07 01:01:59;;;;;;;1.33;0.80;;;;;;;-0.49;70.61;97561.19;5033108;28;20049;-61
2022/01/07 01:04:41;;;;;;;1.85;0.88;;;;;;;-0.48;70.41;97562.78;5032745;28;20424;-62
2022/01/07 01:07:08;;;;;;;1.48;0.85;;;;;;;-0.47;70.45;97564.44;5032824;28;20057;-61
2022/01/07 01:09:35;;;;;;;0.95;0.60;;;;;;;-0.46;70.58;97560.56;5024134;28;20046;-62
2022/01/07 01:12:03;;;;;;;0.85;0.60;;;;;;;-0.47;70.27;97551.56;5032745;28;20397;-62
2022/01/07 01:14:31;;;;;;;1.88;0.88;;;;;;;-0.45;70.24;97552.06;5031217;28;20460;-62
2022/01/07 01:16:59;;;;;;;1.20;0.70;;;;;;;-0.44;70.08;97555.63;5032830;28;20400;-61
2022/01/07 01:19:27;;;;;;;2.08;0.90;;;;;;;-0.44;70.49;97552.88;5032603;28;20077;-62
2022/01/07 01:21:54;;;;;;;7.20;0.90;;;;;;;-0.42;70.41;97556.09;5031276;28;20551;-61
2022/01/07 01:24:22;;;;;;;1.13;0.80;;;;;;;-0.37;70.47;97558.72;5032527;28;20057;-62
2022/01/07 01:26:49;;;;;;;1.15;0.88;;;;;;;-0.36;70.07;97563.03;5032333;28;20523;-62
2022/01/07 01:29:16;;;;;;;1.38;0.90;;;;;;;-0.37;70.12;97569.63;5032555;28;20519;-61
2022/01/07 01:31:43;;;;;;;1.88;0.77;;;;;;;-0.35;69.93;97568.19;5031724;28;20132;-62
2022/01/07 01:34:10;;;;;;;1.35;0.70;;;;;;;-0.42;69.92;97572.47;5028634;28;20062;-62
2022/01/07 01:36:37;;;;;;;1.20;0.80;;;;;;;-0.43;69.95;97573.59;5031832;28;20132;-62
2022/01/07 01:39:04;;;;;;;1.30;0.80;;;;;;;-0.46;70.14;97566.03;5032536;28;20076;-61
2022/01/07 01:41:31;;;;;;;0.82;0.70;;;;;;;-0.43;69.87;97565.41;5031928;28;20536;-62
2022/01/07 01:43:58;;;;;;;2.00;0.90;;;;;;;-0.42;70.09;97570.56;5032349;28;20579;-61
2022/01/07 01:46:25;;;;;;;1.05;0.73;;;;;;;-0.46;69.58;97572.31;5031603;28;20716;-61
2022/01/07 01:48:53;;;;;;;2.53;1.02;;;;;;;-0.58;69.23;97573.97;5032598;28;20045;-62
2022/01/07 01:51:20;;;;;;;1.25;0.77;;;;;;;-0.60;68.83;97568.00;5031173;28;20060;-61
2022/01/07 01:53:47;;;;;;;1.27;0.80;;;;;;;-0.65;69.01;97573.59;5032101;28;20136;-61
2022/01/07 01:56:14;;;;;;;1.52;0.77;;;;;;;-0.71;68.67;97572.88;5031811;28;20061;-61
2022/01/07 01:58:42;;;;;;;0.93;0.63;;;;;;;-0.74;68.61;97575.44;5032399;28;20103;-61
2022/01/07 02:01:10;;;;;;;2.90;1.23;;;;;;;-0.76;68.60;97578.47;5032391;28;20499;-62
2022/01/07 02:03:37;;;;;;;0.60;0.60;;;;;;;-0.84;68.57;97570.19;5032069;28;20500;-61
2022/01/07 02:06:05;;;;;;;0.85;0.60;;;;;;;-0.90;68.22;97568.69;5032103;28;20076;-62
2022/01/07 02:08:31;;;;;;;1.15;0.70;;;;;;;-0.89;68.38;97573.84;5031500;28;20048;-61
2022/01/07 02:10:58;;;;;;;1.10;0.73;;;;;;;-0.87;68.29;97571.63;5032073;28;20493;-61
2022/01/07 02:13:26;;;;;;;0.50;0.47;;;;;;;-0.82;68.44;97578.91;5031600;28;20496;-61
2022/01/07 02:15:53;;;;;;;1.27;0.80;;;;;;;-0.80;68.61;97573.94;5031864;28;20484;-61
2022/01/07 02:18:20;;;;;;;1.27;0.73;;;;;;;-0.77;68.44;97581.53;5031671;28;20076;-61
2022/01/07 02:20:48;;;;;;;1.83;0.80;;;;;;;-0.74;68.32;97581.69;5031988;28;20042;-61
2022/01/07 02:23:17;;;;;;;0.90;0.70;;;;;;;-0.69;68.47;97595.22;5031890;28;20132;-62
2022/01/07 02:25:49;;;;;;;1.17;0.63;;;;;;;-0.65;68.46;97589.97;5032124;28;20053;-61
2022/01/07 02:28:16;;;;;;;1.00;0.68;;;;;;;-0.64;68.39;97586.13;5031533;28;20464;-61
2022/01/07 02:30:44;;;;;;;1.08;0.70;;;;;;;-0.74;68.21;97575.44;5031938;28;20496;-62
2022/01/07 02:33:11;;;;;;;3.15;0.80;;;;;;;-0.70;68.15;97588.16;5025827;28;20152;-62
2022/01/07 02:35:41;;;;;;;1.80;0.80;;;;;;;-0.71;67.98;97592.00;5031441;28;20060;-60
2022/01/07 02:38:08;;;;;;;0.57;0.57;;;;;;;-0.70;67.80;97593.63;5031330;28;20132;-62
2022/01/07 02:40:35;;;;;;;1.08;0.60;;;;;;;-0.70;67.77;97590.91;5032003;28;20073;-61
2022/01/07 02:43:02;;;;;;;4.90;0.70;;;;;;;-0.65;67.96;97600.91;5031499;28;20065;-63
2022/01/07 02:45:28;;;;;;;1.08;0.70;;;;;;;-0.63;67.72;97602.19;5027620;28;20056;-62
2022/01/07 02:47:57;;;;;;;0.70;0.60;;;;;;;-0.59;67.71;97599.66;5031482;28;20471;-62
2022/01/07 02:50:31;;;;;;;0.95;0.60;;;;;;;-0.63;67.61;97604.09;5031173;28;20045;-61
2022/01/07 02:52:58;;;;;;;1.27;0.60;;;;;;;-0.64;67.68;97610.69;5031127;28;20180;-62
2022/01/07 02:55:28;;;;;;;1.88;0.75;;;;;;;-0.67;67.84;97603.94;5027564;28;20144;-62
2022/01/07 02:57:55;;;;;;;2.30;1.00;;;;;;;-0.66;67.90;97600.06;5031779;28;20064;-61
2022/01/07 03:00:24;;;;;;;3.28;0.77;;;;;;;-0.59;67.88;97605.13;5031141;28;20037;-60
2022/01/07 03:02:52;;;;;;;0.80;0.63;;;;;;;-0.61;67.23;97610.06;5031819;28;20053;-56
2022/01/07 03:05:19;;;;;;;1.55;0.80;;;;;;;-0.60;67.21;97606.22;5034872;28;20053;-59
2022/01/07 03:07:47;;;;;;;0.70;0.50;;;;;;;-0.63;67.40;97617.75;5034463;28;20052;-60
2022/01/07 03:10:18;;;;;;;1.35;0.60;;;;;;;-0.67;67.56;97614.03;5033337;28;20068;-60
2022/01/07 03:12:45;;;;;;;1.42;0.63;;;;;;;-0.63;67.42;97615.03;5027611;28;20504;-59
2022/01/07 03:15:13;;;;;;;1.17;0.80;;;;;;;-0.59;67.45;97616.03;5034825;28;20057;-59
2022/01/07 03:17:41;;;;;;;1.75;0.98;;;;;;;-0.59;67.11;97619.56;5035045;28;20468;-60
2022/01/07 03:20:14;;;;;;;2.58;0.88;;;;;;;-0.56;67.71;97626.34;5032348;28;20033;-59
2022/01/07 03:22:42;;;;;;;4.72;0.90;;;;;;;-0.59;67.29;97619.56;5034666;28;20071;-60
2022/01/07 03:25:09;;;;;;;8.65;2.40;;;;;;;-0.59;67.43;97610.59;5035021;28;20049;-60
2022/01/07 03:27:37;;;;;;;1.88;0.98;;;;;;;-0.57;67.42;97619.25;5034978;28;20500;-60
2022/01/07 03:30:06;;;;;;;2.58;0.98;;;;;;;-0.66;67.34;97623.84;5034898;28;20572;-59
2022/01/07 03:32:34;;;;;;;2.38;1.08;;;;;;;-0.68;67.89;97628.81;5031213;28;20141;-60
2022/01/07 03:35:01;;;;;;;1.35;0.77;;;;;;;-0.73;67.45;97620.72;5031256;28;20140;-60
2022/01/07 03:37:29;;;;;;;1.05;0.70;;;;;;;-0.73;67.66;97624.28;5034761;28;20072;-60
2022/01/07 03:39:56;;;;;;;3.75;0.90;;;;;;;-0.68;67.30;97624.13;5034347;28;20124;-61
2022/01/07 03:42:22;;;;;;;1.30;0.80;;;;;;;-0.70;67.34;97636.50;5034688;28;20167;-61
2022/01/07 03:44:49;;;;;;;1.48;0.82;;;;;;;-0.72;67.31;97627.78;5034327;28;20053;-61
2022/01/07 03:47:16;;;;;;;2.40;0.90;;;;;;;-0.71;67.18;97635.66;5034475;28;20053;-62
2022/01/07 03:49:43;;;;;;;1.20;0.80;;;;;;;-0.75;67.52;97637.41;5034563;28;20060;-60
2022/01/07 03:52:10;;;;;;;1.00;0.75;;;;;;;-0.79;67.31;97638.31;5034038;28;20057;-60
2022/01/07 03:54:37;;;;;;;1.52;0.88;;;;;;;-0.84;67.65;97644.69;5027408;28;20408;-61
2022/01/07 03:57:04;;;;;;;1.10;0.70;;;;;;;-0.89;67.89;97646.75;5033385;28;20064;-61
2022/01/07 03:59:32;;;;;;;1.10;0.70;;;;;;;-0.94;68.19;97635.91;5034537;28;20085;-62
2022/01/07 04:01:58;;;;;;;2.78;0.95;;;;;;;-1.06;68.63;97646.53;5033906;28;20064;-61
2022/01/07 04:04:26;;;;;;;1.27;0.73;;;;;;;-1.15;68.87;97641.00;5034252;28;20045;-61
2022/01/07 04:06:53;;;;;;;2.75;0.80;;;;;;;-1.16;69.35;97641.31;5033779;28;20075;-61
2022/01/07 04:09:20;;;;;;;2.25;1.05;;;;;;;-1.19;69.43;97655.56;5034129;28;20060;-61
2022/01/07 04:11:46;;;;;;;2.72;0.90;;;;;;;-1.20;69.54;97651.19;5033693;28;20159;-61
2022/01/07 04:14:13;;;;;;;1.40;0.90;;;;;;;-1.24;69.67;97652.91;5033514;28;20052;-61
2022/01/07 04:16:40;;;;;;;1.52;0.98;;;;;;;-1.30;69.89;97645.94;5033256;28;20050;-61
2022/01/07 04:19:07;;;;;;;1.13;0.80;;;;;;;-1.30;69.97;97648.66;5034039;28;20049;-61
2022/01/07 04:21:34;;;;;;;1.40;0.88;;;;;;;-1.25;70.08;97651.31;5033428;28;20501;-61
2022/01/07 04:24:01;;;;;;;1.52;0.90;;;;;;;-1.24;70.39;97651.00;5033953;28;20049;-61
2022/01/07 04:26:27;;;;;;;1.35;0.77;;;;;;;-1.28;69.94;97657.38;5033854;28;20048;-61
2022/01/07 04:28:54;;;;;;;1.17;0.80;;;;;;;-1.26;70.37;97664.13;5033477;28;20061;-61
2022/01/07 04:31:21;;;;;;;1.65;0.90;;;;;;;-1.28;70.37;97668.28;5033736;28;20041;-61
2022/01/07 04:33:48;;;;;;;1.55;0.80;;;;;;;-1.33;70.29;97666.41;5025215;28;20140;-60
2022/01/07 04:36:15;;;;;;;0.82;0.60;;;;;;;-1.28;70.23;97679.19;5033613;28;20060;-61
2022/01/07 04:38:42;;;;;;;1.08;0.88;;;;;;;-1.37;70.37;97680.97;5033091;28;20087;-61
2022/01/07 04:41:09;;;;;;;9.35;1.00;;;;;;;-1.37;70.42;97681.78;5034154;28;20088;-62
2022/01/07 04:43:36;;;;;;;1.38;0.90;;;;;;;-1.33;70.44;97682.00;5032978;28;20060;-60
2022/01/07 04:46:04;;;;;;;2.72;0.98;;;;;;;-1.32;70.61;97684.41;5033237;28;20045;-61
2022/01/07 04:48:31;;;;;;;1.23;0.85;;;;;;;-1.28;70.47;97690.88;5033170;28;20064;-62
2022/01/07 04:50:58;;;;;;;2.28;0.88;;;;;;;-1.31;70.16;97685.22;5032252;28;20041;-61
2022/01/07 04:53:26;;;;;;;6.88;1.13;;;;;;;-1.37;70.58;97692.69;5032594;28;20061;-61
2022/01/07 04:55:53;;;;;;;1.58;0.95;;;;;;;-1.34;70.44;97689.34;5030596;28;20054;-61
2022/01/07 04:58:20;;;;;;;2.97;1.17;;;;;;;-1.32;70.60;97705.41;5028087;28;20084;-61
2022/01/07 05:00:47;;;;;;;1.60;0.90;;;;;;;-1.33;70.53;97709.25;5033095;28;20052;-61
2022/01/07 05:03:14;;;;;;;1.50;0.80;;;;;;;-1.31;70.28;97707.03;5033021;28;20132;-61
2022/01/07 05:05:44;;;;;;;1.85;0.82;;;;;;;-1.31;70.55;97712.47;5032936;28;20052;-61
2022/01/07 05:08:11;;;;;;;2.38;1.17;;;;;;;-1.27;70.39;97714.34;5025293;28;20072;-61
2022/01/07 05:10:38;;;;;;;2.67;1.02;;;;;;;-1.28;70.34;97715.44;5032475;28;20045;-61
2022/01/07 05:13:05;;;;;;;2.20;1.00;;;;;;;-1.36;70.47;97718.06;5032722;28;20424;-61
2022/01/07 05:15:32;;;;;;;1.67;1.00;;;;;;;-1.44;71.00;97725.00;5032374;28;20056;-61
2022/01/07 05:17:59;;;;;;;2.00;0.90;;;;;;;-1.50;70.80;97726.19;5031856;28;20125;-63
2022/01/07 05:20:26;;;;;;;0.88;0.68;;;;;;;-1.61;70.95;97732.09;5032326;28;20073;-61
2022/01/07 05:22:53;;;;;;;2.38;0.70;;;;;;;-1.63;70.89;97731.63;5032634;28;20064;-62
2022/01/07 05:25:21;;;;;;;2.55;1.05;;;;;;;-1.59;70.72;97722.53;5032760;28;20049;-61
2022/01/07 05:27:47;;;;;;;2.03;0.93;;;;;;;-1.52;70.46;97731.13;5032318;28;20057;-61
2022/01/07 05:30:16;;;;;;;2.88;1.30;;;;;;;-1.50;70.51;97741.75;5032083;28;20049;-61
2022/01/07 05:32:42;;;;;;;2.42;0.75;;;;;;;-1.48;69.99;97751.22;5027864;28;20080;-62
2022/01/07 05:35:09;;;;;;;1.25;0.90;;;;;;;-1.53;70.15;97747.78;5027749;28;20057;-61
2022/01/07 05:37:37;;;;;;;4.05;1.00;;;;;;;-1.59;70.13;97754.44;5032468;28;20057;-61
2022/01/07 05:40:04;;;;;;;1.95;0.85;;;;;;;-1.58;70.24;97764.22;5032331;28;20041;-61
2022/01/07 05:42:31;;;;;;;1.42;0.88;;;;;;;-1.61;69.89;97764.81;5032099;28;20053;-62
2022/01/07 05:44:58;;;;;;;2.03;0.98;;;;;;;-1.63;69.64;97767.06;5032461;28;20424;-61
2022/01/07 05:47:25;;;;;;;0.98;0.77;;;;;;;-1.62;69.60;97776.84;5031724;28;20050;-62
2022/01/07 05:49:52;;;;;;;1.00;0.70;;;;;;;-1.63;69.16;97772.50;5032491;28;20505;-61
2022/01/07 05:52:19;;;;;;;1.70;0.73;;;;;;;-1.74;69.04;97774.59;5031633;28;20540;-61
2022/01/07 05:54:46;;;;;;;1.83;1.02;;;;;;;-1.84;68.85;97777.44;5026377;28;20048;-61
2022/01/07 05:57:14;;;;;;;1.20;0.88;;;;;;;-1.83;68.75;97777.16;5029791;28;20061;-60
2022/01/07 05:59:41;;;;;;;1.25;0.95;;;;;;;-1.89;68.77;97775.59;5032165;28;20049;-61
2022/01/07 06:02:09;;;;;;;0.85;0.63;;;;;;;-1.88;68.89;97795.50;5031459;28;20061;-62
2022/01/07 06:04:36;;;;;;;1.42;0.88;;;;;;;-1.89;68.55;97791.94;5032462;28;20141;-62
2022/01/07 06:07:03;;;;;;;1.33;0.90;;;;;;;-1.89;68.49;97804.78;5030559;28;20064;-61
2022/01/07 06:09:30;;;;;;;1.58;0.95;;;;;;;-2.07;67.80;97783.81;5021042;28;20419;-61
2022/01/07 06:11:57;;;;;;;2.38;0.90;;;;;;;-1.99;67.95;97803.00;5031541;28;20041;-62
2022/01/07 06:14:24;;;;;;;2.78;0.90;;;;;;;-1.96;68.09;97815.22;5032617;28;20454;-61
2022/01/07 06:16:51;;;;;;;5.40;1.20;;;;;;;-1.93;68.29;97799.09;5031746;28;20049;-62
2022/01/07 06:19:18;;;;;;;2.22;1.20;;;;;;;-1.91;67.47;97807.81;5031855;28;20095;-60
2022/01/07 06:21:45;;;;;;;4.43;1.10;;;;;;;-1.95;67.47;97812.22;5031964;28;20429;-60
2022/01/07 06:24:12;;;;;;;2.08;1.20;;;;;;;-2.00;67.43;97803.31;5031417;28;20455;-58
2022/01/07 06:26:39;;;;;;;1.38;0.82;;;;;;;-2.05;67.54;97811.53;5031619;28;20136;-59
2022/01/07 06:29:06;;;;;;;1.35;0.80;;;;;;;-2.12;67.39;97809.19;5031412;28;20051;-58
2022/01/07 06:31:33;;;;;;;8.93;1.10;;;;;;;-2.17;67.42;97817.44;5031938;28;20413;-61
2022/01/07 06:34:02;;;;;;;1.92;1.00;;;;;;;-2.22;67.35;97816.69;5028479;28;20087;-58
2022/01/07 06:36:29;;;;;;;2.38;1.00;;;;;;;-2.28;67.26;97828.75;5031566;28;20056;-59
2022/01/07 06:38:58;;;;;;;2.08;0.90;;;;;;;-2.31;67.31;97830.13;5033792;28;20057;-60
2022/01/07 06:41:25;;;;;;;1.33;0.82;;;;;;;-2.31;67.19;97841.03;5035585;28;20049;-58
2022/01/07 06:43:52;;;;;;;2.80;1.30;;;;;;;-2.35;67.25;97831.81;5035392;28;20050;-59
2022/01/07 06:46:19;;;;;;;4.25;1.10;;;;;;;-2.36;67.34;97832.13;5033837;28;20061;-58
2022/01/07 06:48:47;;;;;;;2.50;1.13;;;;;;;-2.38;66.77;97840.59;5035371;28;20500;-59
2022/01/07 06:51:14;;;;;;;1.13;0.70;;;;;;;-2.52;66.09;97845.09;5035570;28;20489;-59
2022/01/07 06:53:41;;;;;;;2.22;0.90;;;;;;;-2.59;66.10;97844.66;5035343;28;20140;-56
2022/01/07 06:56:08;;;;;;;4.00;0.65;;;;;;;-2.62;65.52;97845.22;5026957;28;20053;-58
2022/01/07 06:58:35;;;;;;;1.98;1.05;;;;;;;-2.60;64.79;97853.09;5035691;28;20050;-60
2022/01/07 07:01:03;;;;;;;4.32;0.90;;;;;;;-2.55;64.49;97855.78;5035047;28;20045;-59
2022/01/07 07:03:30;;;;;;;2.45;0.93;;;;;;;-2.46;64.22;97857.53;5035677;28;20049;-61
2022/01/07 07:05:57;;;;;;;1.55;0.70;;;;;;;-2.49;64.07;97865.50;5035149;28;20049;-61
2022/01/07 07:08:24;;;;;;;1.05;0.68;;;;;;;-2.53;63.61;97854.38;5029194;28;20120;-61
2022/01/07 07:10:50;;;;;;;1.17;0.70;;;;;;;-2.60;63.46;97864.78;5033050;28;20451;-61
2022/01/07 07:13:17;;;;;;;1.08;0.68;;;;;;;-2.65;63.38;97862.13;5035577;28;20052;-61
2022/01/07 07:15:44;;;;;;;1.40;0.88;;;;;;;-2.61;62.86;97873.22;5035129;28;20057;-61
2022/01/07 07:18:13;;;;;;;1.40;0.77;;;;;;;-2.55;62.66;97881.06;5035182;28;20489;-61
2022/01/07 07:20:40;;;;;;;1.13;0.80;;;;;;;-2.49;62.15;97874.47;5024935;28;20524;-61
2022/01/07 07:23:11;;;;;;;4.38;1.30;;;;;;;-2.42;62.46;97891.28;5035808;28;20061;-62
2022/01/07 07:25:38;;;;;;;1.55;0.90;;;;;;;-2.49;60.60;97887.28;5034606;28;20077;-61
2022/01/07 07:28:05;;;;;;;0.73;0.68;;;;;;;-2.55;60.23;97891.16;5035007;28;20049;-61
2022/01/07 07:30:38;;;;;;;2.05;0.90;;;;;;;-2.64;60.38;97899.13;5034719;28;20059;-60
2022/01/07 07:38:38;;;;;;;1.23;0.70;;;;;;;-2.87;60.83;97901.81;5035200;28;20055;-63
2022/01/07 07:41:06;;;;;;;2.20;1.00;;;;;;;-2.93;60.27;97892.88;5034267;28;20061;-62
2022/01/07 07:43:34;;;;;;;0.75;0.60;;;;;;;-2.95;59.36;97900.53;5034915;28;20049;-61
2022/01/07 07:46:01;;;;;;;1.40;0.90;;;;;;;-2.96;60.06;97895.38;5034226;28;20049;-61
2022/01/07 07:48:30;;;;;;;2.10;1.08;;;;;;;-2.86;59.00;97904.25;5034240;28;20049;-61
2022/01/07 07:50:58;;;;;;;1.33;0.80;;;;;;;-2.86;59.74;97893.38;5032762;28;20065;-61
2022/01/07 07:53:25;;;;;;;2.47;1.08;;;;;;;-2.86;59.67;97904.25;5034174;28;20071;-61
2022/01/07 07:55:55;;;;;;;3.63;1.17;;;;;;;-2.88;59.99;97906.44;5025886;28;20064;-61
2022/01/07 07:58:24;;;;;;;1.67;1.08;;;;;;;-2.84;59.67;97907.47;5034590;28;20075;-62
2022/01/07 08:00:51;;;;;;;3.47;1.33;;;;;;;-2.65;59.57;97908.38;5033690;28;20053;-62
2022/01/07 08:03:23;;;;;;;3.08;1.48;;;;;;;-2.44;59.18;97912.53;5034343;28;20076;-62
2022/01/07 08:05:49;;;;;;;1.42;1.00;;;;;;;-2.25;59.07;97920.75;5034365;28;20046;-62
2022/01/07 08:08:16;;;;;;;1.48;0.95;;;;;;;-2.05;59.05;97915.88;5034591;28;20059;-61
2022/01/07 08:10:53;;;;;;;1.58;0.90;;;;;;;-1.93;58.47;97916.25;5034182;28;20041;-62
2022/01/07 08:13:30;;;;;;;2.08;1.20;;;;;;;-2.18;58.25;97918.50;5034260;28;20454;-62
2022/01/07 08:15:59;;;;;;;2.47;1.13;;;;;;;-2.13;58.00;97913.78;5033873;28;20080;-61
2022/01/07 08:18:37;;;;;;;2.88;1.00;;;;;;;-2.11;58.16;97908.88;5033974;28;20575;-62
2022/01/07 08:21:10;;;;;;;2.28;1.10;;;;;;;-2.12;58.96;97920.88;5025404;28;20451;-61
2022/01/07 08:23:39;;;;;;;4.07;1.35;;;;;;;-1.91;58.34;97922.25;5033982;28;20064;-63
2022/01/07 08:26:09;;;;;;;1.83;1.02;;;;;;;-1.77;58.17;97924.25;5034074;28;20068;-63
2022/01/07 08:28:44;;;;;;;2.40;1.00;;;;;;;-1.92;58.76;97942.41;5034178;28;20079;-63
2022/01/07 08:31:25;;;;;;;2.85;1.38;;;;;;;-1.94;58.93;97941.06;5033356;28;20041;-63
2022/01/07 08:36:38;;;;;;;1.38;0.85;;;;;;;-2.11;59.10;97943.44;5031159;28;20057;-62
2022/01/07 08:39:07;;;;;;;2.55;1.25;;;;;;;-2.08;59.25;97954.59;5033256;28;20203;-60
2022/01/07 08:41:36;;;;;;;1.75;0.82;;;;;;;-2.02;58.52;97958.88;5031164;28;20088;-59
2022/01/07 08:44:04;;;;;;;1.77;1.08;;;;;;;-1.90;57.85;97953.81;5033265;28;20401;-60
2022/01/07 08:46:32;;;;;;;3.17;1.35;;;;;;;-1.89;57.56;97965.53;5033663;28;20049;-60
2022/01/07 08:48:59;;;;;;;1.35;1.00;;;;;;;-1.86;57.06;97971.19;5033556;28;20049;-60
2022/01/07 08:51:26;;;;;;;1.58;0.90;;;;;;;-2.07;57.34;97983.44;5032939;28;20053;-59
2022/01/07 08:53:54;;;;;;;1.27;0.80;;;;;;;-2.10;57.72;97989.47;5033537;28;20077;-58
2022/01/07 08:56:24;;;;;;;1.30;0.80;;;;;;;-2.09;57.27;97987.56;5033075;28;20057;-60
2022/01/07 08:58:55;;;;;;;1.65;0.80;;;;;;;-2.27;57.47;97993.75;5033131;28;20049;-59
2022/01/07 09:01:24;;;;;;;6.18;0.85;;;;;;;-2.52;57.41;97997.53;5032533;28;20052;-58
2022/01/07 09:03:51;;;;;;;2.95;0.90;;;;;;;-2.79;56.99;97996.41;5033364;28;20053;-58
2022/01/07 09:06:18;;;;;;;3.03;0.88;;;;;;;-2.99;57.21;98000.09;5032538;28;20539;-58
2022/01/07 09:08:46;;;;;;;1.35;0.60;;;;;;;-3.02;56.94;98006.09;5031920;28;20140;-55
2022/01/07 09:11:13;;;;;;;2.90;0.95;;;;;;;-2.78;57.27;98007.00;5032300;28;20049;-58
2022/01/07 09:13:40;;;;;;;0.98;0.65;;;;;;;-2.25;56.24;98019.59;5033071;28;20049;-59
2022/01/07 09:16:07;;;;;;;1.90;1.00;;;;;;;-2.24;55.38;98018.50;5032452;28;20054;-58
2022/01/07 09:18:34;;;;;;;1.83;0.80;;;;;;;-2.26;55.11;98028.03;5033027;28;20049;-62
2022/01/07 09:21:01;;;;;;;3.08;1.00;;;;;;;-2.44;55.11;98026.84;5024214;28;20045;-59
2022/01/07 09:23:28;;;;;;;1.17;0.80;;;;;;;-2.73;55.58;98036.06;5033418;28;20443;-61
2022/01/07 09:25:55;;;;;;;1.48;0.93;;;;;;;-3.04;55.52;98040.94;5032363;28;20052;-59
2022/01/07 09:28:22;;;;;;;1.77;0.80;;;;;;;-3.11;56.64;98048.56;5029468;28;21401;-60
2022/01/07 09:30:49;;;;;;;1.77;0.60;;;;;;;-2.95;55.42;98036.53;5031996;28;20064;-57
2022/01/07 09:33:15;;;;;;;1.27;0.70;;;;;;;-2.78;55.46;98036.13;5029705;28;20060;-59
2022/01/07 09:35:44;;;;;;;1.58;0.93;;;;;;;-2.62;55.15;98038.44;5032612;28;20136;-60
2022/01/07 09:38:11;;;;;;;1.10;0.80;;;;;;;-1.81;53.64;98043.13;5032286;28;20072;-59
2022/01/07 09:40:38;;;;;;;2.00;0.90;;;;;;;-1.70;52.89;98036.44;5032530;28;20053;-60
2022/01/07 09:43:09;;;;;;;1.45;1.00;;;;;;;-1.83;53.11;98038.75;5032571;28;20540;-59
2022/01/07 09:45:38;;;;;;;1.30;0.88;;;;;;;-1.93;53.46;98051.66;5032233;28;20058;-59
2022/01/07 09:48:08;;;;;;;2.95;1.23;;;;;;;-2.12;53.75;98053.50;5032309;28;20049;-59
2022/01/07 09:50:36;;;;;;;6.07;1.13;;;;;;;-2.54;54.39;98056.06;5032358;28;20068;-59
2022/01/07 09:53:08;;;;;;;1.00;0.60;;;;;;;-2.81;54.93;98056.53;5031616;28;20270;-60
2022/01/07 09:55:36;;;;;;;2.63;0.93;;;;;;;-3.00;55.71;98061.03;5031419;28;20077;-58
2022/01/07 09:58:04;;;;;;;0.98;0.68;;;;;;;-3.10;55.63;98066.53;5031930;28;20061;-56
2022/01/07 10:00:38;;;;;;;5.28;0.90;;;;;;;-3.41;56.86;98061.53;5031866;28;20084;-59
2022/01/07 10:03:07;;;;;;;1.75;1.05;;;;;;;-3.56;56.55;98059.69;5031545;28;20497;-60
2022/01/07 10:05:45;;;;;;;7.63;3.00;;;;;;;-3.56;57.33;98061.63;5032499;28;20052;-58
2022/01/07 10:08:23;;;;;;;1.75;1.08;;;;;;;-3.69;56.91;98063.00;5032014;28;20059;-58
2022/01/07 10:11:19;;;;;;;2.63;1.10;;;;;;;-3.77;57.10;98060.84;5031890;28;20056;-59
2022/01/07 10:14:10;;;;;;;2.53;1.10;;;;;;;-3.76;57.33;98062.50;5030863;28;20053;-58
2022/01/07 10:16:55;;;;;;;3.00;1.10;;;;;;;-3.78;56.88;98054.63;5031761;28;20144;-60
2022/01/07 10:19:32;;;;;;;2.90;1.20;;;;;;;-3.93;57.19;98048.44;5031547;28;20056;-56
2022/01/07 10:22:07;;;;;;;2.78;1.48;;;;;;;-4.01;57.91;98048.97;5032125;28;20068;-59
2022/01/07 10:24:58;;;;;;;2.92;1.17;;;;;;;-4.06;57.64;98049.00;5031727;28;20103;-59
2022/01/07 10:27:36;;;;;;;1.77;0.90;;;;;;;-4.07;58.22;98050.09;5031998;28;20048;-59
2022/01/07 10:30:14;;;;;;;2.75;0.95;;;;;;;-4.13;58.10;98048.47;5031898;28;20057;-59
2022/01/07 10:32:41;;;;;;;2.28;0.90;;;;;;;-4.16;58.22;98044.41;5028608;28;20034;-59
2022/01/07 10:35:15;;;;;;;3.05;1.20;;;;;;;-4.17;58.34;98047.41;5028383;28;20440;-57
2022/01/07 10:37:47;;;;;;;2.83;1.30;;;;;;;-4.21;58.34;98043.59;5031346;28;20588;-57
2022/01/07 10:40:28;;;;;;;1.20;0.82;;;;;;;-4.17;58.38;98050.91;5028826;28;20144;-60
2022/01/07 10:43:21;;;;;;;64.72;17.95;;;;;;;-4.27;58.67;98039.25;5031386;28;20056;-59
2022/01/07 10:46:12;;;;;;;3.28;1.35;;;;;;;-4.32;58.41;98036.56;5031366;28;20481;-62
2022/01/07 10:48:43;;;;;;;;;;;;;;;-4.33;58.57;98029.50;5029487;28;20067;-61
2022/01/07 10:51:18;;;;;;;2.53;0.77;;;;;;;-4.33;58.31;98043.06;5030783;28;20023;-62
2022/01/07 10:53:56;;;;;;;2.03;1.17;;;;;;;-4.32;58.53;98036.56;5031406;28;20059;-61
2022/01/07 10:56:25;;;;;;;2.65;1.10;;;;;;;-4.31;58.19;98032.75;5031085;28;20049;-61
2022/01/07 10:58:58;;;;;;;1.83;0.70;;;;;;;-4.26;58.35;98030.06;5031940;28;20049;-61
2022/01/07 11:01:33;;;;;;;4.70;1.20;;;;;;;-4.24;58.27;98031.41;5031039;28;20132;-61
2022/01/07 11:04:03;;;;;;;1.48;0.90;;;;;;;-4.21;58.23;98021.88;5031815;28;20532;-62
2022/01/07 11:06:30;;;;;;;6.28;1.30;;;;;;;-4.16;58.59;98019.97;5027947;28;20092;-62
2022/01/07 11:08:59;;;;;;;3.33;1.10;;;;;;;-4.14;58.87;98022.41;5031476;28;20552;-61
2022/01/07 11:11:29;;;;;;;3.15;1.00;;;;;;;-4.13;58.36;98024.88;5030972;28;20049;-63
2022/01/07 11:14:08;;;;;;;6.95;1.35;;;;;;;-4.13;58.27;98014.00;5032041;28;20045;-61
2022/01/07 11:16:39;;;;;;;4.07;1.00;;;;;;;-4.14;58.85;98022.41;5031145;28;20077;-61
2022/01/07 11:19:08;;;;;;;1.45;0.93;;;;;;;-4.17;58.90;98022.97;5031571;28;20046;-61
2022/01/07 11:21:36;;;;;;;2.97;1.20;;;;;;;-4.13;58.59;98026.75;5030909;28;20132;-60
2022/01/07 11:24:33;;;;;;;2.90;1.00;;;;;;;-4.11;58.44;98030.81;5031925;28;20072;-58
2022/01/07 11:27:21;;;;;;;3.05;1.10;;;;;;;-4.13;59.02;98041.16;5031767;28;20527;-59
2022/01/07 11:29:47;;;;;;;2.97;1.33;;;;;;;-4.17;58.68;98031.13;5033703;28;20061;-60
2022/01/07 11:32:26;;;;;;;1.70;0.93;;;;;;;-4.21;58.56;98039.00;5033757;28;20528;-60
2022/01/07 11:34:55;;;;;;;4.57;1.05;;;;;;;-4.21;58.56;98036.28;5033357;28;20057;-59
2022/01/07 11:37:39;;;;;;;2.40;1.17;;;;;;;-4.21;58.14;98040.88;5035179;28;20054;-58
2022/01/07 11:40:07;;;;;;;2.90;1.17;;;;;;;-4.24;58.63;98033.28;5034417;28;20080;-58
2022/01/07 11:42:45;;;;;;;4.35;1.17;;;;;;;-4.19;59.10;98044.97;5034705;28;20499;-59
2022/01/07 11:45:28;;;;;;;5.25;1.20;;;;;;;-4.22;58.92;98041.97;5034861;28;20045;-60
2022/01/07 11:48:12;;;;;;;2.80;1.20;;;;;;;-4.24;58.70;98044.13;5033947;28;20072;-60
2022/01/07 11:50:46;;;;;;;2.60;1.17;;;;;;;-4.22;58.62;98041.97;5034476;28;20440;-59